Time;durP1;ratioP1;P1;durP2;ratioP2;P2;SDS_P1;SDS_P2;PMS_P1;PMS_P2;Temp;Humidity;BMP_temperature;BMP_pressure;BME280_temperature;BME280_humidity;BME280_pressure;Samples;Min_cycle;Max_cycle;Signal;HPM_P1;HPM_P2
2022/03/09 00:00:17;;;;;;;22.73;13.18;;;-1.40;50.70;;;;;;5019102;28;20206;-82
2022/03/09 00:02:44;;;;;;;21.58;12.63;;;-1.40;52.10;;;;;;5019238;28;20598;-82
2022/03/09 00:05:11;;;;;;;24.98;14.27;;;-1.50;52.00;;;;;;5019990;28;20194;-81
2022/03/09 00:07:38;;;;;;;22.50;14.15;;;-1.60;51.90;;;;;;5019060;28;20215;-82
2022/03/09 00:10:08;;;;;;;27.00;15.52;;;-1.70;54.70;;;;;;5018790;28;20202;-81
2022/03/09 00:12:34;;;;;;;20.88;13.93;;;-1.60;55.50;;;;;;5019644;28;20198;-82
2022/03/09 00:15:01;;;;;;;37.47;14.48;;;-1.60;55.60;;;;;;5019124;28;20198;-82
2022/03/09 00:17:28;;;;;;;18.67;12.68;;;-1.50;55.40;;;;;;5019276;28;20198;-81
2022/03/09 00:19:57;;;;;;;29.50;12.38;;;-1.40;53.60;;;;;;5018902;28;20201;-82
2022/03/09 00:22:24;;;;;;;20.55;12.15;;;-1.30;53.00;;;;;;5018994;28;20217;-82
2022/03/09 00:24:51;;;;;;;19.73;12.43;;;-1.40;52.10;;;;;;5019089;28;20198;-81
2022/03/09 00:27:19;;;;;;;23.90;12.68;;;-1.30;52.20;;;;;;5018923;28;20240;-82
2022/03/09 00:29:45;;;;;;;26.45;11.80;;;-1.20;52.30;;;;;;5018628;28;20203;-82
2022/03/09 00:32:13;;;;;;;23.55;13.10;;;-1.20;52.30;;;;;;5018673;28;20218;-81
2022/03/09 00:34:40;;;;;;;21.23;11.77;;;-1.20;52.10;;;;;;5016475;28;20667;-81
2022/03/09 00:37:07;;;;;;;34.40;12.25;;;-1.20;52.10;;;;;;5016264;28;20197;-81
2022/03/09 00:39:34;;;;;;;18.63;12.32;;;-1.20;53.10;;;;;;4995890;28;20221;-82
2022/03/09 00:42:00;;;;;;;21.48;13.05;;;-1.20;52.90;;;;;;4996024;28;20215;-81
2022/03/09 00:44:28;;;;;;;25.05;13.90;;;-1.20;52.40;;;;;;5015283;28;20637;-81
2022/03/09 00:46:55;;;;;;;19.52;11.63;;;-1.30;52.20;;;;;;5015661;28;20194;-81
2022/03/09 00:49:22;;;;;;;19.48;11.00;;;-1.20;53.20;;;;;;5015930;28;20195;-81
2022/03/09 00:51:48;;;;;;;22.65;13.30;;;-1.20;53.60;;;;;;5016090;28;20225;-80
2022/03/09 00:54:15;;;;;;;20.35;11.88;;;-1.30;54.00;;;;;;5015928;28;20205;-80
2022/03/09 00:56:42;;;;;;;21.13;13.05;;;-1.20;55.20;;;;;;5016529;28;20202;-80
2022/03/09 00:59:09;;;;;;;19.42;12.30;;;-1.30;54.60;;;;;;5015447;28;20203;-81
2022/03/09 01:01:37;;;;;;;22.88;14.60;;;-1.30;54.70;;;;;;5022093;22;20234;-81
2022/03/09 01:04:04;;;;;;;23.15;13.25;;;-1.30;55.70;;;;;;4976816;28;20200;-81
2022/03/09 01:06:31;;;;;;;24.55;12.95;;;-1.30;55.90;;;;;;4977226;28;20211;-81
2022/03/09 01:08:58;;;;;;;22.70;13.27;;;-1.30;56.60;;;;;;4975885;28;20219;-81
2022/03/09 01:11:24;;;;;;;21.00;14.73;;;-1.30;56.40;;;;;;4976736;28;20798;-80
2022/03/09 01:13:51;;;;;;;47.92;35.63;;;-1.20;55.80;;;;;;4976134;28;20192;-82
2022/03/09 01:16:18;;;;;;;25.20;16.08;;;-1.20;55.40;;;;;;4976792;28;20587;-81
2022/03/09 01:18:46;;;;;;;22.23;13.27;;;-1.20;55.40;;;;;;4975283;28;20199;-81
2022/03/09 01:21:13;;;;;;;20.85;14.00;;;-1.20;56.40;;;;;;4976527;28;20227;-80
2022/03/09 01:23:39;;;;;;;24.02;13.65;;;-1.20;56.00;;;;;;4976200;28;20208;-81
2022/03/09 01:26:06;;;;;;;19.77;12.73;;;-1.20;57.40;;;;;;4976921;28;20203;-81
2022/03/09 01:28:33;;;;;;;24.05;13.35;;;-1.30;56.60;;;;;;4975740;28;20219;-81
2022/03/09 01:31:00;;;;;;;23.02;13.23;;;-1.10;56.60;;;;;;4976559;28;20270;-81
2022/03/09 01:33:27;;;;;;;17.60;10.70;;;-1.20;54.60;;;;;;4976336;28;20206;-80
2022/03/09 01:35:55;;;;;;;15.68;11.95;;;-1.00;52.40;;;;;;4976334;28;20250;-80
2022/03/09 01:38:21;;;;;;;23.08;12.27;;;-1.00;53.20;;;;;;4975717;28;20221;-81
2022/03/09 01:40:48;;;;;;;24.50;11.93;;;-1.00;52.40;;;;;;4975870;28;20195;-80
2022/03/09 01:43:16;;;;;;;24.33;13.43;;;-1.10;52.40;;;;;;4976667;28;20196;-81
2022/03/09 01:45:43;;;;;;;20.02;12.85;;;-1.00;52.40;;;;;;4976554;28;20350;-81
2022/03/09 01:48:09;;;;;;;22.15;14.73;;;-1.00;54.10;;;;;;4975796;28;20590;-80
2022/03/09 01:50:36;;;;;;;24.90;12.50;;;-1.10;55.80;;;;;;4976228;28;20700;-80
2022/03/09 01:53:05;;;;;;;20.13;11.57;;;-1.10;56.50;;;;;;4976154;28;20207;-81
2022/03/09 01:55:32;;;;;;;20.45;13.05;;;-1.30;56.50;;;;;;4976774;28;20200;-81
2022/03/09 01:57:58;;;;;;;19.30;12.90;;;-1.30;56.80;;;;;;4976252;28;20187;-81
2022/03/09 02:00:25;;;;;;;19.92;13.27;;;-1.30;56.50;;;;;;4976158;28;20208;-80
2022/03/09 02:02:52;;;;;;;19.23;13.00;;;-1.40;55.50;;;;;;4975570;28;20227;-82
2022/03/09 02:05:19;;;;;;;18.88;12.52;;;-1.40;56.00;;;;;;4976429;28;20680;-81
2022/03/09 02:10:31;;;;;;;21.95;13.10;;;-1.60;55.20;;;;;;4975836;28;20266;-80
2022/03/09 02:12:58;;;;;;;21.92;11.98;;;-1.70;56.50;;;;;;4975909;28;20562;-81
2022/03/09 02:15:25;;;;;;;25.38;13.73;;;-1.80;56.90;;;;;;4975872;28;20196;-81
2022/03/09 02:17:52;;;;;;;23.77;13.20;;;-1.80;57.60;;;;;;4975534;28;20207;-80
2022/03/09 02:20:18;;;;;;;25.30;12.60;;;-1.70;57.50;;;;;;4975786;28;20191;-81
2022/03/09 02:22:46;;;;;;;20.20;13.57;;;-1.70;57.70;;;;;;4976516;28;20228;-81
2022/03/09 02:25:16;;;;;;;20.02;12.63;;;-1.60;57.20;;;;;;4976312;28;20207;-82
2022/03/09 02:27:45;;;;;;;17.45;12.43;;;-1.50;55.00;;;;;;4976164;28;20212;-81
2022/03/09 02:30:14;;;;;;;19.13;12.40;;;-1.40;53.60;;;;;;4977284;28;20203;-80
2022/03/09 02:32:42;;;;;;;18.77;12.70;;;-1.40;52.10;;;;;;4980078;28;20231;-81
2022/03/09 02:35:10;;;;;;;16.15;10.98;;;-1.40;52.10;;;;;;4980402;28;20628;-81
2022/03/09 02:37:36;;;;;;;18.30;12.23;;;-1.40;52.10;;;;;;4979727;28;20238;-81
2022/03/09 02:40:07;;;;;;;16.38;10.02;;;-1.40;52.10;;;;;;4978959;28;20203;-81
2022/03/09 02:42:34;;;;;;;19.15;11.05;;;-1.40;52.70;;;;;;4979333;28;20215;-80
2022/03/09 02:45:01;;;;;;;21.25;12.13;;;-1.30;52.20;;;;;;4979018;28;20203;-80
2022/03/09 02:47:27;;;;;;;23.65;11.93;;;-1.30;52.20;;;;;;4979350;28;20585;-81
2022/03/09 02:49:54;;;;;;;21.30;12.70;;;-1.20;52.30;;;;;;4979035;28;20207;-80
2022/03/09 02:52:21;;;;;;;21.23;11.02;;;-1.10;53.20;;;;;;4978821;28;20212;-81
2022/03/09 02:54:48;;;;;;;17.02;11.38;;;-1.10;51.80;;;;;;4979479;28;20199;-81
2022/03/09 02:57:16;;;;;;;21.38;13.15;;;-1.10;51.30;;;;;;4979264;28;20196;-80
2022/03/09 02:59:43;;;;;;;19.58;10.60;;;-1.00;49.50;;;;;;4979221;28;20207;-81
2022/03/09 03:02:09;;;;;;;18.73;11.88;;;-1.00;48.70;;;;;;4978559;28;20238;-81
2022/03/09 03:04:36;;;;;;;16.92;10.63;;;-0.90;49.70;;;;;;4979696;28;20204;-81
2022/03/09 03:07:03;;;;;;;16.77;10.30;;;-1.00;50.30;;;;;;4978440;28;20677;-80
2022/03/09 03:09:30;;;;;;;16.92;11.07;;;-1.00;50.70;;;;;;4978451;28;20580;-80
2022/03/09 03:11:57;;;;;;;19.83;13.00;;;-1.10;52.30;;;;;;4978907;28;20216;-80
2022/03/09 03:14:25;;;;;;;16.35;12.60;;;-1.10;52.30;;;;;;4979168;28;20575;-80
2022/03/09 03:16:51;;;;;;;18.90;11.80;;;-1.20;52.30;;;;;;4977898;28;20200;-76
2022/03/09 03:19:18;;;;;;;20.00;12.18;;;-1.10;53.30;;;;;;4977829;28;20676;-82
2022/03/09 03:21:45;;;;;;;17.35;11.93;;;-1.10;55.00;;;;;;4979030;28;20216;-79
2022/03/09 03:24:11;;;;;;;23.42;11.93;;;-1.20;55.40;;;;;;4979143;28;20595;-80
2022/03/09 03:26:38;;;;;;;19.60;12.75;;;-1.30;56.50;;;;;;4979034;28;20203;-81
2022/03/09 03:29:05;;;;;;;18.45;13.00;;;-1.30;58.40;;;;;;4978668;28;20228;-81
2022/03/09 03:31:33;;;;;;;21.75;14.63;;;-1.30;58.00;;;;;;4978827;28;20230;-80
2022/03/09 03:34:00;;;;;;;19.67;13.68;;;-1.40;58.90;;;;;;4978959;28;20200;-80
2022/03/09 03:36:27;;;;;;;19.92;12.60;;;-1.40;58.80;;;;;;4978693;28;20206;-79
2022/03/09 03:38:54;;;;;;;19.73;11.93;;;-1.30;58.60;;;;;;4978056;28;20196;-80
2022/03/09 03:41:20;;;;;;;25.17;13.60;;;-1.30;59.20;;;;;;4977296;28;20219;-81
2022/03/09 03:43:47;;;;;;;23.48;14.50;;;-1.50;59.80;;;;;;4978165;28;20225;-82
2022/03/09 03:46:14;;;;;;;19.70;13.00;;;-1.40;60.30;;;;;;4977422;28;20218;-81
2022/03/09 03:48:42;;;;;;;24.38;14.77;;;-1.50;61.10;;;;;;4975966;28;20219;-81
2022/03/09 03:51:09;;;;;;;24.70;14.20;;;-1.60;60.90;;;;;;4967170;28;20212;-81
2022/03/09 03:53:35;;;;;;;21.73;12.20;;;-1.60;60.40;;;;;;4976116;28;20192;-80
2022/03/09 03:56:02;;;;;;;21.83;13.73;;;-1.60;60.20;;;;;;4978231;28;20227;-82
2022/03/09 03:58:29;;;;;;;17.20;12.23;;;-1.60;59.70;;;;;;4976683;28;20200;-81
2022/03/09 04:00:55;;;;;;;17.60;12.90;;;-1.60;59.20;;;;;;4976706;28;20223;-80
2022/03/09 04:03:22;;;;;;;20.95;12.73;;;-1.50;58.80;;;;;;4978080;28;20203;-80
2022/03/09 04:05:50;;;;;;;24.98;12.18;;;-1.40;58.00;;;;;;4974714;28;20280;-81
2022/03/09 04:08:17;;;;;;;15.07;10.35;;;-1.40;57.50;;;;;;4966509;28;20215;-82
2022/03/09 04:10:44;;;;;;;17.33;11.70;;;-1.40;56.60;;;;;;4977510;28;20200;-81
2022/03/09 04:13:10;;;;;;;17.08;10.75;;;-1.30;56.20;;;;;;4976357;28;20567;-81
2022/03/09 04:15:37;;;;;;;18.45;11.07;;;-1.30;55.90;;;;;;4977476;28;20208;-81
2022/03/09 04:18:04;;;;;;;22.85;11.30;;;-1.40;56.40;;;;;;4975811;28;20207;-81
2022/03/09 04:20:31;;;;;;;27.10;12.57;;;-1.30;56.90;;;;;;4977282;28;20204;-80
2022/03/09 04:22:59;;;;;;;27.45;13.07;;;-1.40;57.50;;;;;;4979812;28;20207;-81
2022/03/09 04:25:26;;;;;;;17.65;11.02;;;-1.30;58.10;;;;;;4958540;29;20227;-82
2022/03/09 04:27:53;;;;;;;18.02;11.57;;;-1.30;56.00;;;;;;4976404;28;20243;-81
2022/03/09 04:30:20;;;;;;;17.05;11.43;;;-1.30;55.10;;;;;;4977611;28;20788;-80
2022/03/09 04:32:46;;;;;;;35.70;16.95;;;-1.20;53.70;;;;;;4976600;28;20215;-82
2022/03/09 04:35:13;;;;;;;19.65;12.77;;;-1.30;54.20;;;;;;4978397;28;20196;-81
2022/03/09 04:37:40;;;;;;;19.30;12.10;;;-1.50;55.50;;;;;;4981249;28;20200;-81
2022/03/09 04:40:10;;;;;;;18.90;11.25;;;-1.60;58.10;;;;;;4989355;28;20207;-79
2022/03/09 04:42:36;;;;;;;19.13;12.07;;;-1.60;59.30;;;;;;4988947;28;20651;-79
2022/03/09 04:45:04;;;;;;;25.45;13.30;;;-1.80;57.90;;;;;;4984712;28;20199;-81
2022/03/09 04:47:30;;;;;;;22.92;12.18;;;-1.90;58.70;;;;;;4976705;28;20196;-82
2022/03/09 04:49:57;;;;;;;21.08;14.15;;;-2.10;60.90;;;;;;4975887;28;20254;-81
2022/03/09 04:52:24;;;;;;;20.92;12.57;;;-2.40;62.30;;;;;;4974647;28;20239;-81
2022/03/09 04:54:51;;;;;;;20.15;14.30;;;-2.50;62.80;;;;;;4961807;28;20280;-82
2022/03/09 04:57:19;;;;;;;20.73;14.35;;;-2.50;64.10;;;;;;4971768;28;20191;-81
2022/03/09 04:59:46;;;;;;;19.52;13.98;;;-2.60;64.60;;;;;;4976205;28;20194;-81
2022/03/09 05:02:13;;;;;;;20.33;15.55;;;-2.80;64.80;;;;;;4976150;28;20223;-82
2022/03/09 05:04:39;;;;;;;19.30;14.00;;;-2.90;67.00;;;;;;4975436;28;20191;-81
2022/03/09 05:07:06;;;;;;;20.85;13.02;;;-2.90;65.50;;;;;;4976426;28;20222;-80
2022/03/09 05:09:33;;;;;;;21.30;15.40;;;-2.80;65.50;;;;;;4975216;28;20199;-81
2022/03/09 05:12:00;;;;;;;16.88;14.10;;;-2.90;65.40;;;;;;4976485;28;20223;-81
2022/03/09 05:14:28;;;;;;;16.67;13.52;;;-3.00;65.60;;;;;;4976676;28;20230;-81
2022/03/09 05:16:55;;;;;;;21.50;16.00;;;-2.90;66.80;;;;;;4973369;28;20199;-80
2022/03/09 05:19:22;;;;;;;46.42;35.65;;;-2.90;67.00;;;;;;4975367;28;20220;-80
2022/03/09 05:21:49;;;;;;;21.90;14.30;;;-2.80;67.10;;;;;;4974908;28;20306;-81
2022/03/09 05:24:16;;;;;;;22.77;15.73;;;-2.60;67.20;;;;;;4973881;28;20196;-81
2022/03/09 05:26:46;;;;;;;21.00;14.82;;;-2.50;67.40;;;;;;4974153;28;20242;-80
2022/03/09 05:29:13;;;;;;;21.40;13.88;;;-2.50;66.50;;;;;;4973290;28;20210;-81
2022/03/09 05:31:41;;;;;;;29.63;16.73;;;-2.40;66.20;;;;;;4975355;28;20227;-80
2022/03/09 05:34:08;;;;;;;19.20;13.50;;;-2.40;67.20;;;;;;4974406;28;20199;-80
2022/03/09 05:36:35;;;;;;;21.95;13.77;;;-2.30;66.40;;;;;;4973344;28;20214;-80
2022/03/09 05:39:01;;;;;;;23.60;15.18;;;-2.40;65.00;;;;;;4972855;28;20710;-80
2022/03/09 05:41:28;;;;;;;21.80;14.20;;;-2.50;65.80;;;;;;4974199;28;20220;-80
2022/03/09 05:43:55;;;;;;;19.52;13.32;;;-2.50;66.10;;;;;;4973251;28;20200;-80
2022/03/09 05:46:22;;;;;;;19.05;14.25;;;-2.40;66.00;;;;;;4974639;28;20200;-81
2022/03/09 05:48:50;;;;;;;19.50;13.00;;;-2.50;65.30;;;;;;4972982;28;20200;-80
2022/03/09 05:51:16;;;;;;;23.98;15.57;;;-2.50;64.80;;;;;;4974822;28;20223;-80
2022/03/09 05:53:43;;;;;;;19.25;13.50;;;-2.50;65.10;;;;;;4974873;28;20199;-81
2022/03/09 05:56:10;;;;;;;22.63;12.95;;;-2.50;67.30;;;;;;4974496;28;20202;-80
2022/03/09 05:58:37;;;;;;;23.33;20.92;;;-2.50;67.20;;;;;;4973769;28;20715;-80
2022/03/09 06:01:03;;;;;;;32.67;17.20;;;-2.60;65.90;;;;;;4976759;28;20763;-80
2022/03/09 06:03:30;;;;;;;20.58;14.20;;;-2.60;65.90;;;;;;4973835;28;20665;-80
2022/03/09 06:05:59;;;;;;;27.10;14.85;;;-2.60;66.10;;;;;;4977131;28;20207;-79
2022/03/09 06:08:25;;;;;;;20.67;14.27;;;-2.60;67.20;;;;;;4977417;28;20195;-80
2022/03/09 06:10:52;;;;;;;26.58;15.00;;;-2.70;67.20;;;;;;4977755;28;20740;-81
2022/03/09 06:13:19;;;;;;;18.58;14.13;;;-2.70;67.20;;;;;;4977977;28;20199;-78
2022/03/09 06:15:46;;;;;;;20.05;15.20;;;-2.70;67.20;;;;;;4977481;28;20196;-80
2022/03/09 06:18:13;;;;;;;25.27;16.77;;;-2.70;67.20;;;;;;4978796;28;20571;-79
2022/03/09 06:20:40;;;;;;;25.02;16.25;;;-2.70;67.20;;;;;;4977714;28;20227;-79
2022/03/09 06:23:08;;;;;;;22.23;14.10;;;-2.60;67.20;;;;;;4973479;28;20700;-80
2022/03/09 06:25:36;;;;;;;23.30;13.02;;;-2.60;67.20;;;;;;4964465;28;20196;-79
2022/03/09 06:28:03;;;;;;;21.65;12.85;;;-2.50;66.30;;;;;;4974941;28;20504;-80
2022/03/09 06:30:30;;;;;;;19.85;13.13;;;-2.30;65.50;;;;;;4976069;28;20195;-79
2022/03/09 06:32:57;;;;;;;24.95;14.13;;;-2.20;64.80;;;;;;4976434;28;20206;-80
2022/03/09 06:35:23;;;;;;;21.65;14.00;;;-2.10;64.50;;;;;;4976417;28;20199;-79
2022/03/09 06:37:50;;;;;;;18.50;11.88;;;-2.10;64.00;;;;;;4978106;28;20570;-80
2022/03/09 06:40:18;;;;;;;18.80;13.70;;;-2.00;63.40;;;;;;4985897;28;20211;-80
2022/03/09 06:42:45;;;;;;;18.20;11.48;;;-1.80;62.10;;;;;;4977267;28;20212;-80
2022/03/09 06:45:12;;;;;;;17.30;10.38;;;-1.70;60.60;;;;;;4977487;28;20573;-79
2022/03/09 06:47:39;;;;;;;22.67;13.20;;;-1.60;60.10;;;;;;4975125;28;20563;-78
2022/03/09 06:50:08;;;;;;;20.33;12.60;;;-1.50;59.20;;;;;;4975763;28;20192;-80
2022/03/09 06:52:34;;;;;;;22.40;13.20;;;-1.50;59.60;;;;;;4975639;28;20298;-79
2022/03/09 06:55:03;;;;;;;18.20;12.18;;;-1.40;60.90;;;;;;4984843;28;20203;-80
2022/03/09 06:57:32;;;;;;;18.92;11.65;;;-1.20;61.00;;;;;;4987943;28;20254;-79
2022/03/09 06:59:59;;;;;;;19.65;11.75;;;-1.20;60.50;;;;;;4984059;28;20211;-79
2022/03/09 07:02:26;;;;;;;20.23;12.65;;;-1.20;60.50;;;;;;5003281;23;20696;-80
2022/03/09 07:04:53;;;;;;;24.38;12.13;;;-1.00;60.20;;;;;;4979877;28;20190;-80
2022/03/09 07:07:20;;;;;;;21.55;11.75;;;-0.80;58.70;;;;;;4995758;28;20203;-80
2022/03/09 07:09:46;;;;;;;28.85;12.18;;;-0.60;57.10;;;;;;4987228;28;20268;-80
2022/03/09 07:12:13;;;;;;;13.60;9.47;;;-0.40;53.20;;;;;;4976953;28;20588;-80
2022/03/09 07:14:41;;;;;;;17.45;10.80;;;-0.10;49.90;;;;;;4976664;28;20451;-79
2022/03/09 07:17:08;;;;;;;16.50;10.52;;;-0.10;48.50;;;;;;4976136;28;20195;-80
2022/03/09 07:19:35;;;;;;;17.20;10.90;;;0.20;46.30;;;;;;4978202;28;20223;-81
2022/03/09 07:22:02;;;;;;;17.97;8.70;;;0.40;44.60;;;;;;4978149;28;20470;-80
2022/03/09 07:24:28;;;;;;;14.63;9.03;;;0.60;42.70;;;;;;4980306;28;20447;-80
2022/03/09 07:26:56;;;;;;;15.30;8.87;;;0.70;43.60;;;;;;4979454;28;20459;-81
2022/03/09 07:29:23;;;;;;;22.13;10.17;;;0.90;42.10;;;;;;4979161;28;20478;-81
2022/03/09 07:31:52;;;;;;;18.20;9.57;;;1.00;42.20;;;;;;4978663;28;20482;-81
2022/03/09 07:34:19;;;;;;;11.98;7.90;;;1.20;41.10;;;;;;4979899;28;20889;-81
2022/03/09 07:36:46;;;;;;;14.13;8.87;;;1.30;39.90;;;;;;4979045;28;20203;-81
2022/03/09 07:39:14;;;;;;;20.03;10.83;;;1.60;37.90;;;;;;4977082;28;20486;-81
2022/03/09 07:41:40;;;;;;;13.18;8.57;;;1.60;37.60;;;;;;4977718;28;20479;-81
2022/03/09 07:44:07;;;;;;;15.70;10.33;;;1.70;37.80;;;;;;4978302;28;20199;-81
2022/03/09 07:46:34;;;;;;;22.73;9.33;;;1.90;37.80;;;;;;4976250;28;20461;-82
2022/03/09 07:49:02;;;;;;;16.80;9.77;;;2.10;34.60;;;;;;4976355;28;20462;-81
2022/03/09 07:51:29;;;;;;;18.73;8.60;;;2.20;32.20;;;;;;4975776;28;20498;-81
2022/03/09 07:53:56;;;;;;;15.03;9.47;;;2.30;31.80;;;;;;4976053;28;20467;-81
2022/03/09 07:56:23;;;;;;;14.60;8.97;;;2.30;32.20;;;;;;4975599;28;20451;-81
2022/03/09 07:58:49;;;;;;;17.00;9.17;;;2.50;31.40;;;;;;4975776;28;20459;-83
2022/03/09 08:01:16;;;;;;;14.60;8.80;;;2.70;29.90;;;;;;4974541;28;20487;-79
2022/03/09 08:03:44;;;;;;;14.90;9.20;;;2.80;29.90;;;;;;4975662;28;20455;-82
2022/03/09 08:06:12;;;;;;;25.70;9.80;;;2.90;29.30;;;;;;4977964;28;20987;-82
2022/03/09 08:08:39;;;;;;;14.30;9.30;;;3.10;28.00;;;;;;4976096;28;20462;-85
2022/03/09 08:11:06;;;;;;;13.67;9.10;;;3.20;27.50;;;;;;4973621;28;20482;-84
2022/03/09 08:13:33;;;;;;;17.80;9.10;;;3.20;26.30;;;;;;4975028;28;20458;-83
2022/03/09 08:15:59;;;;;;;14.80;9.20;;;3.50;25.30;;;;;;4975227;28;20458;-84
2022/03/09 08:18:26;;;;;;;12.97;8.23;;;3.60;25.70;;;;;;4975592;28;20814;-84
2022/03/09 08:20:53;;;;;;;30.30;9.10;;;3.60;23.60;;;;;;4976331;28;20483;-84
2022/03/09 08:23:22;;;;;;;13.80;8.93;;;3.80;23.80;;;;;;4974863;28;20479;-84
2022/03/09 08:25:49;;;;;;;13.37;8.77;;;3.90;23.70;;;;;;4975912;28;20490;-83
2022/03/09 08:28:16;;;;;;;19.43;8.87;;;3.90;22.90;;;;;;4973503;28;20470;-83
2022/03/09 08:30:43;;;;;;;14.40;8.17;;;4.10;23.80;;;;;;4974281;28;20462;-83
2022/03/09 08:33:10;;;;;;;13.40;7.90;;;4.20;21.80;;;;;;4975140;28;20475;-84
2022/03/09 08:35:37;;;;;;;14.17;8.40;;;4.30;21.90;;;;;;4974378;28;20488;-83
2022/03/09 08:38:04;;;;;;;15.27;9.37;;;4.30;21.80;;;;;;4975294;28;20454;-84
2022/03/09 08:40:32;;;;;;;14.57;8.53;;;4.50;21.70;;;;;;4973985;28;21000;-83
2022/03/09 08:42:59;;;;;;;15.40;8.27;;;4.60;20.40;;;;;;4974082;28;20505;-83
2022/03/09 08:45:26;;;;;;;14.50;9.60;;;4.80;20.70;;;;;;4974327;28;20466;-83
2022/03/09 08:47:52;;;;;;;12.50;7.57;;;4.80;20.20;;;;;;4974779;28;20455;-83
2022/03/09 08:50:19;;;;;;;15.10;8.67;;;5.00;19.50;;;;;;4974872;28;20462;-84
2022/03/09 08:52:46;;;;;;;14.60;9.37;;;5.10;18.90;;;;;;4975050;28;20522;-84
2022/03/09 08:55:12;;;;;;;13.20;9.00;;;5.30;19.60;;;;;;4974150;28;20455;-84
2022/03/09 08:57:41;;;;;;;21.63;9.20;;;5.60;18.30;;;;;;4974468;28;20852;-84
2022/03/09 09:00:09;;;;;;;16.80;8.37;;;5.90;17.50;;;;;;4973511;28;20481;-84
2022/03/09 09:02:36;;;;;;;16.77;9.50;;;6.20;16.50;;;;;;4974062;28;20482;-84
2022/03/09 09:05:04;;;;;;;17.50;8.40;;;6.60;15.10;;;;;;4974535;28;20465;-84
2022/03/09 09:07:32;;;;;;;15.20;9.30;;;7.10;13.30;;;;;;4974877;28;20522;-84
2022/03/09 09:09:59;;;;;;;14.10;8.87;;;7.40;12.00;;;;;;4974207;28;20455;-84
2022/03/09 09:12:25;;;;;;;18.17;8.80;;;7.70;10.70;;;;;;4973771;28;20485;-84
2022/03/09 09:14:53;;;;;;;16.60;9.10;;;8.10;10.70;;;;;;4974215;28;20463;-84
2022/03/09 09:17:20;;;;;;;15.17;9.27;;;8.40;8.60;;;;;;4973872;28;20841;-84
2022/03/09 09:19:47;;;;;;;19.80;8.47;;;8.50;7.10;;;;;;4973492;28;20482;-84
2022/03/09 09:22:13;;;;;;;17.13;9.07;;;8.70;6.60;;;;;;4974640;28;20856;-84
2022/03/09 09:24:41;;;;;;;22.80;8.70;;;8.80;5.00;;;;;;4974675;28;20462;-82
2022/03/09 09:27:07;;;;;;;18.50;9.67;;;8.90;3.70;;;;;;4974402;28;20510;-84
2022/03/09 09:29:34;;;;;;;22.97;10.27;;;9.00;2.80;;;;;;4973144;28;20459;-83
2022/03/09 09:32:03;;;;;;;19.20;10.33;;;9.30;2.80;;;;;;4973308;28;20475;-83
2022/03/09 09:34:30;;;;;;;20.70;10.30;;;9.70;2.80;;;;;;4974491;28;20462;-84
2022/03/09 09:36:57;;;;;;;15.63;10.93;;;9.70;2.50;;;;;;4973518;28;20458;-84
2022/03/09 09:39:24;;;;;;;15.57;10.60;;;9.90;1.00;;;;;;4972286;28;20459;-84
2022/03/09 09:41:52;;;;;;;16.03;11.10;;;10.00;1.00;;;;;;4973257;28;20471;-84
2022/03/09 09:44:23;;;;;;;16.97;11.77;;;10.00;1.00;;;;;;4973930;28;20455;-84
2022/03/09 09:46:50;;;;;;;21.43;10.83;;;10.20;1.00;;;;;;4974583;28;20502;-84
2022/03/09 09:49:23;;;;;;;14.87;10.60;;;10.30;1.00;;;;;;4973527;28;20535;-84
2022/03/09 09:51:52;;;;;;;14.07;9.73;;;10.50;1.00;;;;;;4975007;28;20487;-84
2022/03/09 09:54:19;;;;;;;18.20;11.93;;;10.60;1.00;;;;;;4973766;28;20459;-84
2022/03/09 09:56:46;;;;;;;18.83;11.23;;;10.80;1.00;;;;;;4974497;28;20470;-84
2022/03/09 09:59:13;;;;;;;16.97;11.00;;;11.00;1.00;;;;;;4977241;28;20454;-85
2022/03/09 10:01:41;;;;;;;18.10;12.60;;;11.20;1.00;;;;;;4978700;28;20992;-85
2022/03/09 10:04:09;;;;;;;19.10;12.20;;;11.30;1.00;;;;;;4978420;28;20464;-85
2022/03/09 10:06:38;;;;;;;18.43;12.17;;;11.50;1.00;;;;;;4978592;28;20463;-85
2022/03/09 10:09:06;;;;;;;17.37;10.87;;;11.80;1.00;;;;;;4974110;28;20459;-85
2022/03/09 10:11:47;;;;;;;20.83;11.90;;;11.90;1.00;;;;;;4975268;28;20488;-85
2022/03/09 10:14:15;;;;;;;21.53;12.20;;;12.30;1.00;;;;;;4975824;28;20460;-84
2022/03/09 10:17:06;;;;;;;16.40;10.53;;;12.30;1.00;;;;;;4973529;28;20461;-84
2022/03/09 10:19:34;;;;;;;19.40;12.33;;;12.40;1.00;;;;;;4973352;28;20463;-84
2022/03/09 10:22:28;;;;;;;22.67;11.67;;;12.80;1.00;;;;;;4974573;28;20465;-83
2022/03/09 10:25:01;;;;;;;15.37;10.90;;;13.00;1.00;;;;;;4974666;28;20986;-85
2022/03/09 10:27:34;;;;;;;16.27;11.07;;;13.10;1.00;;;;;;4972555;28;20881;-84
2022/03/09 10:30:01;;;;;;;17.10;12.07;;;13.30;1.00;;;;;;4972973;28;20944;-84
2022/03/09 10:32:46;;;;;;;19.65;12.57;;;13.30;1.00;;;;;;4972154;28;20490;-84
2022/03/09 10:35:14;;;;;;;17.17;11.50;;;13.60;1.00;;;;;;4971501;28;20195;-84
2022/03/09 10:37:43;;;;;;;17.87;12.70;;;13.50;1.00;;;;;;4971818;28;20472;-86
2022/03/09 10:40:12;;;;;;;18.10;12.10;;;13.90;1.00;;;;;;4973524;28;20447;-84
2022/03/09 10:42:39;;;;;;;15.50;12.03;;;13.90;1.00;;;;;;4973810;28;20468;-84
2022/03/09 10:45:08;;;;;;;16.30;12.03;;;13.90;1.00;;;;;;4972976;28;20461;-84
2022/03/09 10:47:37;;;;;;;15.57;11.30;;;14.30;1.00;;;;;;4973047;28;20885;-84
2022/03/09 10:50:15;;;;;;;15.67;11.20;;;14.30;1.00;;;;;;4972656;28;20465;-84
2022/03/09 10:52:45;;;;;;;20.63;11.80;;;14.70;1.00;;;;;;4975902;28;20484;-83
2022/03/09 10:55:37;;;;;;;17.73;11.83;;;14.60;1.00;;;;;;4976426;28;20456;-84
2022/03/09 10:58:12;;;;;;;17.17;11.33;;;15.10;1.00;;;;;;4961989;28;20465;-84
2022/03/09 11:00:41;;;;;;;19.63;11.70;;;15.00;1.00;;;;;;4976490;28;20464;-84
2022/03/09 11:03:10;;;;;;;18.10;11.80;;;15.20;1.00;;;;;;4975888;28;21019;-84
2022/03/09 11:05:37;;;;;;;15.43;10.50;;;15.60;1.00;;;;;;4976078;28;20476;-84
2022/03/09 11:08:07;;;;;;;15.77;11.13;;;15.30;1.00;;;;;;4975989;28;20451;-84
2022/03/09 11:10:34;;;;;;;17.70;13.47;;;15.50;1.00;;;;;;4975882;28;20489;-84
2022/03/09 11:13:01;;;;;;;20.90;10.80;;;15.70;1.00;;;;;;4975644;28;20478;-84
2022/03/09 11:15:29;;;;;;;20.30;12.10;;;15.40;1.00;;;;;;4975503;28;20464;-84
2022/03/09 11:17:56;;;;;;;17.73;12.50;;;15.70;1.00;;;;;;4975822;28;20494;-84
2022/03/09 11:20:23;;;;;;;16.33;10.80;;;15.60;1.00;;;;;;4975674;28;20463;-84
2022/03/09 11:22:51;;;;;;;16.90;11.63;;;15.60;1.00;;;;;;4976135;28;20530;-84
2022/03/09 11:25:23;;;;;;;20.33;13.70;;;16.00;1.00;;;;;;4975755;28;20462;-84
2022/03/09 11:27:53;;;;;;;14.90;10.97;;;15.80;1.00;;;;;;4975781;28;20516;-84
2022/03/09 11:30:28;;;;;;;19.10;12.27;;;15.90;1.00;;;;;;4975951;28;20507;-84
2022/03/09 11:32:56;;;;;;;16.80;11.87;;;16.00;1.00;;;;;;4976036;28;20479;-84
2022/03/09 11:35:41;;;;;;;17.60;12.67;;;16.10;1.00;;;;;;4978141;28;20459;-84
2022/03/09 11:38:39;;;;;;;16.00;12.80;;;16.40;1.00;;;;;;4976298;28;20465;-83
2022/03/09 11:41:31;;;;;;;18.35;13.35;;;16.50;1.00;;;;;;4972197;28;20458;-85
2022/03/09 11:44:29;;;;;;;18.47;12.97;;;15.90;1.00;;;;;;4974500;28;20196;-84
2022/03/09 11:47:04;;;;;;;15.77;12.03;;;16.00;1.00;;;;;;4976660;28;20453;-83
2022/03/09 11:49:33;;;;;;;16.30;12.53;;;16.60;1.00;;;;;;4973880;28;20456;-83
2022/03/09 11:52:08;;;;;;;18.13;12.50;;;17.00;1.00;;;;;;4976707;28;20978;-86
2022/03/09 11:54:43;;;;;;;20.10;12.13;;;16.90;1.00;;;;;;4974731;28;21177;-85
2022/03/09 11:57:11;;;;;;;16.67;13.03;;;17.20;1.00;;;;;;4976412;28;20963;-85
2022/03/09 11:59:39;;;;;;;16.90;12.83;;;17.60;1.00;;;;;;4976605;28;20463;-82
2022/03/09 12:02:17;;;;;;;18.77;13.43;;;17.80;1.00;;;;;;4975764;28;20486;-85
2022/03/09 12:04:54;;;;;;;17.50;13.50;;;17.50;1.00;;;;;;4976628;28;20456;-86
2022/03/09 12:07:47;;;;;;;22.17;13.20;;;17.80;1.00;;;;;;4975321;28;20460;-85
2022/03/09 12:10:15;;;;;;;21.70;14.07;;;18.10;1.00;;;;;;4976282;28;20458;-85
2022/03/09 12:13:17;;;;;;;20.90;14.77;;;18.90;1.00;;;;;;4975110;28;20471;-86
2022/03/09 12:16:12;;;;;;;22.23;14.40;;;19.30;1.00;;;;;;4976354;28;20548;-85
2022/03/09 12:18:41;;;;;;;24.43;14.40;;;18.80;1.00;;;;;;4974029;28;20484;-86
2022/03/09 12:21:11;;;;;;;19.20;14.57;;;19.10;1.00;;;;;;4974262;28;20453;-86
2022/03/09 12:24:26;;;;;;;17.90;13.80;;;18.80;1.00;;;;;;4974707;28;20452;-86
2022/03/09 12:26:54;;;;;;;20.10;15.47;;;19.30;1.00;;;;;;4966518;28;20448;-87
2022/03/09 12:29:41;;;;;;;21.20;15.60;;;19.60;1.00;;;;;;4975776;28;20466;-86
2022/03/09 12:32:11;;;;;;;21.90;14.70;;;19.50;1.00;;;;;;4974924;28;20490;-86
2022/03/09 12:34:40;;;;;;;18.33;14.57;;;20.20;1.00;;;;;;4974206;28;20555;-86
2022/03/09 12:37:09;;;;;;;26.23;15.50;;;20.00;1.00;;;;;;4974229;28;20461;-84
2022/03/09 12:39:37;;;;;;;21.10;14.90;;;19.90;1.00;;;;;;4974627;28;20458;-87
2022/03/09 12:42:06;;;;;;;19.50;13.43;;;19.70;1.00;;;;;;4973963;28;20473;-86